Time;durP1;ratioP1;P1;durP2;ratioP2;P2;SDS_P1;SDS_P2;PMS_P1;PMS_P2;Temp;Humidity;BMP_temperature;BMP_pressure;BME280_temperature;BME280_humidity;BME280_pressure;Samples;Min_cycle;Max_cycle;Signal;HPM_P1;HPM_P2
2021/03/30 00:00:44;;;;;;;17.60;10.80;;;;;;;10.33;70.72;102584.88;4983554;28;20502;-73
2021/03/30 00:03:30;;;;;;;14.88;9.35;;;;;;;10.40;70.18;102586.72;4996364;28;20070;-73
2021/03/30 00:06:16;;;;;;;13.07;9.00;;;;;;;10.50;69.84;102580.72;4997226;28;20035;-74
2021/03/30 00:09:03;;;;;;;14.93;9.30;;;;;;;10.03;71.22;102582.69;4970586;28;20062;-73
2021/03/30 00:11:49;;;;;;;13.80;9.00;;;;;;;10.24;71.76;102582.16;4968884;28;20058;-75
2021/03/30 00:14:34;;;;;;;14.73;8.88;;;;;;;10.02;72.65;102579.16;4997746;28;20341;-74
2021/03/30 00:17:20;;;;;;;13.27;9.30;;;;;;;10.07;72.82;102580.16;4996557;28;20026;-75
2021/03/30 00:20:12;;;;;;;13.55;9.05;;;;;;;10.09;73.18;102578.44;4997154;28;20092;-73
2021/03/30 00:22:58;;;;;;;14.70;9.10;;;;;;;10.47;70.89;102575.44;4996903;28;20037;-74
2021/03/30 00:25:43;;;;;;;15.32;9.48;;;;;;;10.14;74.22;102573.28;4996849;28;20110;-73
2021/03/30 00:28:29;;;;;;;20.42;12.48;;;;;;;9.88;74.45;102578.09;4996975;28;20118;-74
2021/03/30 00:31:15;;;;;;;16.63;9.77;;;;;;;9.96;74.23;102579.09;4995863;28;20400;-74
2021/03/30 00:34:01;;;;;;;12.77;8.80;;;;;;;10.08;73.89;102570.56;4996790;28;20129;-73
2021/03/30 00:36:46;;;;;;;15.00;9.05;;;;;;;10.18;74.31;102577.69;4996808;28;20367;-73
2021/03/30 00:39:32;;;;;;;13.93;8.70;;;;;;;10.34;72.33;102574.41;4996514;28;20026;-74
2021/03/30 00:42:21;;;;;;;14.50;7.85;;;;;;;9.98;73.97;102577.34;4982388;28;20022;-74
2021/03/30 00:45:09;;;;;;;12.45;7.60;;;;;;;10.29;73.17;102576.06;4996798;28;20407;-73
2021/03/30 00:47:55;;;;;;;12.15;7.70;;;;;;;10.07;75.11;102571.41;4996435;28;20129;-74
2021/03/30 00:50:41;;;;;;;12.40;7.80;;;;;;;10.34;73.73;102573.53;4982584;28;20116;-73
2021/03/30 00:53:26;;;;;;;10.38;7.18;;;;;;;10.22;72.69;102575.97;4996235;28;20356;-74
2021/03/30 00:56:12;;;;;;;10.40;7.18;;;;;;;10.03;74.28;102574.81;4996462;28;20033;-75
2021/03/30 00:59:01;;;;;;;11.50;7.88;;;;;;;10.23;73.43;102569.88;4982133;28;20053;-74
2021/03/30 01:01:47;;;;;;;11.60;7.20;;;;;;;10.28;72.89;102563.84;4996108;28;20568;-74
2021/03/30 01:04:32;;;;;;;12.60;7.50;;;;;;;10.12;74.07;102572.34;4996778;28;20427;-73
2021/03/30 01:07:18;;;;;;;12.88;7.90;;;;;;;9.98;74.96;102566.03;4995406;28;20037;-74
2021/03/30 01:10:41;;;;;;;12.05;7.65;;;;;;;9.72;76.51;102563.00;4996756;28;20407;-73
2021/03/30 01:13:49;;;;;;;13.27;8.15;;;;;;;10.13;73.94;102567.16;4981633;28;20426;-74
2021/03/30 01:16:41;;;;;;;13.55;8.65;;;;;;;9.99;75.15;102568.66;4996633;28;20019;-74
2021/03/30 01:19:48;;;;;;;9.80;7.55;;;;;;;9.90;74.95;102565.91;4995206;28;20105;-74
2021/03/30 01:23:02;;;;;;;12.70;7.95;;;;;;;9.76;76.16;102572.69;4995426;28;20033;-74
2021/03/30 01:26:17;;;;;;;15.85;8.02;;;;;;;9.88;76.50;102572.88;4995267;28;20049;-74
2021/03/30 01:29:38;;;;;;;12.70;7.72;;;;;;;9.57;77.13;102568.00;4995120;28;20059;-74
2021/03/30 01:41:53;;;;;;;12.93;8.15;;;;;;;10.09;76.25;102567.09;5333588;23;20368;-73
2021/03/30 01:44:40;;;;;;;11.45;7.90;;;;;;;10.09;76.71;102560.09;5035203;28;20025;-75
2021/03/30 01:47:29;;;;;;;15.45;8.40;;;;;;;9.85;77.07;102557.09;5034075;28;20112;-73
2021/03/30 01:50:15;;;;;;;15.15;8.10;;;;;;;9.45;79.30;102559.09;5034417;28;20055;-73
2021/03/30 01:53:03;;;;;;;16.95;8.45;;;;;;;9.82;77.77;102562.28;5034724;28;20083;-74
2021/03/30 01:55:53;;;;;;;15.80;7.97;;;;;;;9.95;76.72;102561.63;5033418;28;20030;-74
2021/03/30 01:58:40;;;;;;;15.80;9.00;;;;;;;9.73;78.08;102561.28;5019880;28;20040;-73
2021/03/30 02:01:27;;;;;;;16.05;8.77;;;;;;;9.89;77.90;102560.66;5034561;28;20425;-75
2021/03/30 02:04:14;;;;;;;14.02;8.45;;;;;;;9.53;77.97;102565.34;5034618;28;20025;-73
2021/03/30 02:07:03;;;;;;;11.40;8.20;;;;;;;9.65;77.88;102557.69;5033228;28;20374;-73
2021/03/30 02:09:53;;;;;;;12.23;8.25;;;;;;;9.77;77.24;102555.25;5020761;28;20029;-74
2021/03/30 02:12:43;;;;;;;12.77;8.65;;;;;;;9.70;77.98;102556.00;5033825;28;20055;-74
2021/03/30 02:15:30;;;;;;;20.77;8.90;;;;;;;9.43;80.56;102555.56;5019633;28;20021;-74
2021/03/30 02:18:17;;;;;;;13.25;8.32;;;;;;;9.82;79.30;102557.03;5033380;28;20056;-74
2021/03/30 02:21:06;;;;;;;12.57;8.15;;;;;;;9.88;77.98;102556.25;5034998;28;20370;-74
2021/03/30 02:23:53;;;;;;;11.77;8.30;;;;;;;9.34;82.41;102545.84;5032831;28;20061;-74
2021/03/30 02:26:41;;;;;;;12.82;8.40;;;;;;;9.50;82.55;102553.09;5020302;28;20029;-73
2021/03/30 02:29:33;;;;;;;14.45;9.40;;;;;;;9.62;80.48;102552.38;5034076;28;20032;-74
2021/03/30 02:32:21;;;;;;;14.60;9.15;;;;;;;9.51;81.88;102548.72;5034797;28;20045;-74
2021/03/30 02:35:08;;;;;;;14.45;9.02;;;;;;;9.25;83.77;102550.91;5033533;28;20022;-74
2021/03/30 02:37:55;;;;;;;15.93;8.75;;;;;;;9.20;83.60;102555.19;5020690;28;20477;-73
2021/03/30 02:40:43;;;;;;;13.65;8.65;;;;;;;9.50;82.30;102553.09;5033186;28;20057;-74
2021/03/30 02:43:31;;;;;;;13.40;8.85;;;;;;;9.20;83.44;102552.56;5034028;28;20022;-74
2021/03/30 02:46:18;;;;;;;13.68;9.38;;;;;;;9.12;86.51;102551.53;5034393;28;20025;-74
2021/03/30 02:49:04;;;;;;;13.75;8.85;;;;;;;9.42;84.50;102552.09;5034028;28;20420;-73
2021/03/30 02:51:51;;;;;;;16.30;9.45;;;;;;;9.03;86.02;102545.28;5034208;28;20485;-74
2021/03/30 02:54:37;;;;;;;13.88;8.88;;;;;;;9.11;86.77;102541.94;5033597;28;20041;-74
2021/03/30 02:57:23;;;;;;;13.77;9.20;;;;;;;9.10;87.47;102545.44;5034182;28;20033;-74
2021/03/30 03:00:10;;;;;;;17.25;10.80;;;;;;;9.29;86.95;102547.47;5034053;28;20025;-74
2021/03/30 03:02:57;;;;;;;16.60;11.35;;;;;;;9.39;85.44;102546.78;5034287;28;20037;-73
2021/03/30 03:05:44;;;;;;;17.20;10.88;;;;;;;9.43;85.61;102540.75;5033120;28;20090;-74
2021/03/30 03:08:31;;;;;;;29.80;12.68;;;;;;;9.52;84.61;102548.75;5033802;28;20029;-74
2021/03/30 03:11:18;;;;;;;16.63;11.07;;;;;;;9.50;84.75;102544.34;5033395;28;20374;-74
2021/03/30 03:14:04;;;;;;;18.05;10.77;;;;;;;9.46;84.79;102550.38;5020399;28;20434;-73
2021/03/30 03:16:50;;;;;;;14.70;9.50;;;;;;;9.61;82.67;102545.41;5020438;28;20116;-74
2021/03/30 03:19:37;;;;;;;16.13;9.93;;;;;;;9.42;83.93;102545.94;5019680;28;20358;-74
2021/03/30 03:22:23;;;;;;;15.40;9.73;;;;;;;9.64;83.72;102548.03;5019448;28;20022;-73
2021/03/30 03:25:13;;;;;;;17.52;11.10;;;;;;;9.63;84.01;102554.13;5033679;28;20062;-74
2021/03/30 03:28:02;;;;;;;16.42;9.68;;;;;;;9.51;83.21;102543.47;5034021;28;20104;-74
2021/03/30 03:30:48;;;;;;;16.55;10.13;;;;;;;9.91;81.33;102549.34;5036014;28;20026;-74
2021/03/30 03:33:34;;;;;;;17.20;10.40;;;;;;;9.62;82.23;102549.78;5022851;28;20368;-74
2021/03/30 03:36:20;;;;;;;19.02;11.02;;;;;;;9.77;82.51;102553.50;5024102;28;20057;-73
2021/03/30 03:39:09;;;;;;;17.20;10.57;;;;;;;9.66;83.52;102548.97;5037703;28;20036;-73
2021/03/30 03:41:54;;;;;;;15.80;11.07;;;;;;;9.58;84.32;102551.47;5023464;28;20513;-74
2021/03/30 03:44:40;;;;;;;20.50;11.18;;;;;;;9.67;84.29;102555.94;5036868;28;20044;-74
2021/03/30 03:47:26;;;;;;;24.67;12.68;;;;;;;9.60;85.26;102562.81;5036430;28;20017;-74
2021/03/30 03:50:12;;;;;;;19.80;11.73;;;;;;;9.49;86.21;102555.69;5037079;28;20040;-73
2021/03/30 03:52:59;;;;;;;22.13;11.80;;;;;;;9.35;86.30;102560.66;5036471;28;20148;-73
2021/03/30 03:55:49;;;;;;;18.58;12.35;;;;;;;9.13;89.69;102557.66;5022359;28;20026;-74
2021/03/30 03:58:46;;;;;;;16.63;11.20;;;;;;;8.94;91.71;102563.41;5022651;28;20025;-73
2021/03/30 04:01:43;;;;;;;20.77;11.98;;;;;;;9.36;89.50;102561.53;5036229;28;20025;-74
2021/03/30 04:05:01;;;;;;;18.42;12.23;;;;;;;9.17;91.39;102568.19;5023435;28;20041;-74
2021/03/30 04:08:05;;;;;;;22.02;11.90;;;;;;;9.35;90.28;102576.38;5022013;28;20053;-74
2021/03/30 04:10:53;;;;;;;23.85;12.65;;;;;;;9.60;89.32;102577.63;5036760;28;20021;-73
2021/03/30 04:13:40;;;;;;;22.60;12.10;;;;;;;9.32;91.17;102576.31;5036185;28;20034;-73
2021/03/30 04:16:26;;;;;;;29.27;13.43;;;;;;;8.94;95.17;102579.09;5036226;28;20029;-74
2021/03/30 04:19:12;;;;;;;25.90;13.75;;;;;;;9.11;95.71;102578.56;5036688;28;20036;-74
2021/03/30 04:21:59;;;;;;;24.25;12.60;;;;;;;9.06;94.88;102580.22;5035470;28;20029;-71
2021/03/30 04:24:45;;;;;;;21.33;12.05;;;;;;;9.23;93.99;102590.97;5035841;28;20025;-72
2021/03/30 04:27:32;;;;;;;21.95;12.27;;;;;;;9.15;94.77;102593.44;5036671;28;20041;-73
2021/03/30 04:30:19;;;;;;;21.60;11.98;;;;;;;8.96;94.80;102599.19;5035986;28;20079;-72
2021/03/30 04:33:05;;;;;;;20.15;11.90;;;;;;;9.24;93.88;102611.00;5036029;28;20118;-73
2021/03/30 04:35:50;;;;;;;22.08;13.48;;;;;;;9.47;92.41;102609.69;5035671;28;20025;-72
2021/03/30 04:38:36;;;;;;;22.48;14.27;;;;;;;9.18;96.79;102610.94;5035956;28;20108;-74
2021/03/30 04:41:22;;;;;;;24.65;15.52;;;;;;;9.11;100.00;102615.16;5034184;28;20488;-73
2021/03/30 04:44:08;;;;;;;28.70;16.77;;;;;;;9.19;100.00;102620.53;5021571;28;20366;-74
2021/03/30 04:46:53;;;;;;;28.10;16.15;;;;;;;9.19;100.00;102629.25;5035733;28;20022;-73
2021/03/30 04:49:39;;;;;;;30.77;16.00;;;;;;;9.21;100.00;102627.53;5034768;28;20040;-73
2021/03/30 04:52:25;;;;;;;24.00;16.55;;;;;;;8.77;100.00;102628.41;5035341;28;20029;-74
2021/03/30 04:55:11;;;;;;;29.58;16.52;;;;;;;8.83;100.00;102630.28;5034449;28;20026;-74
2021/03/30 04:57:57;;;;;;;29.42;16.05;;;;;;;9.22;100.00;102631.94;5035359;28;20037;-76
2021/03/30 05:00:42;;;;;;;36.15;16.55;;;;;;;9.22;100.00;102636.28;5035413;28;20049;-73
2021/03/30 05:03:28;;;;;;;30.88;16.10;;;;;;;9.38;100.00;102633.09;5021268;28;20037;-74
2021/03/30 05:06:14;;;;;;;33.67;14.32;;;;;;;9.25;100.00;102633.72;5022663;28;20021;-75
2021/03/30 05:09:00;;;;;;;26.33;15.57;;;;;;;9.19;100.00;102642.34;5035461;28;20072;-71
2021/03/30 05:11:46;;;;;;;24.40;14.93;;;;;;;9.20;100.00;102640.59;5022100;28;20049;-72
2021/03/30 05:14:32;;;;;;;26.73;15.57;;;;;;;9.33;100.00;102640.84;5034462;28;20017;-75
2021/03/30 05:17:17;;;;;;;30.77;14.48;;;;;;;9.24;100.00;102645.03;5020507;28;20036;-75
2021/03/30 05:20:05;;;;;;;24.83;14.23;;;;;;;9.17;100.00;102645.78;5035209;28;20026;-74
2021/03/30 05:22:51;;;;;;;28.10;14.63;;;;;;;9.53;97.49;102643.84;5034584;28;20029;-75
2021/03/30 05:25:37;;;;;;;23.67;14.20;;;;;;;9.63;94.60;102637.88;5020351;28;20410;-73
2021/03/30 05:28:23;;;;;;;26.05;14.18;;;;;;;9.80;93.72;102644.28;5020800;28;20116;-71
2021/03/30 05:31:09;;;;;;;24.50;15.13;;;;;;;9.29;95.62;102641.63;5034705;28;20025;-75
2021/03/30 05:33:55;;;;;;;22.15;13.98;;;;;;;9.84;94.09;102652.22;5035123;28;20028;-73
2021/03/30 05:36:40;;;;;;;27.75;15.25;;;;;;;10.21;90.88;102651.09;5019875;28;20040;-74
2021/03/30 05:39:26;;;;;;;25.50;14.60;;;;;;;10.21;89.24;102656.34;5021856;28;20446;-74
2021/03/30 05:42:17;;;;;;;27.67;15.02;;;;;;;10.08;88.00;102656.97;5033084;28;20481;-72
2021/03/30 05:45:04;;;;;;;30.35;15.95;;;;;;;9.99;86.32;102660.31;5022174;28;20125;-74
2021/03/30 05:47:50;;;;;;;24.98;15.85;;;;;;;10.00;85.43;102653.31;5034742;28;20080;-75
2021/03/30 05:50:36;;;;;;;33.15;21.30;;;;;;;9.73;90.49;102655.53;5034766;28;20481;-74
2021/03/30 05:53:24;;;;;;;29.17;16.75;;;;;;;9.69;95.81;102653.72;5033790;28;20116;-72
2021/03/30 05:56:10;;;;;;;25.13;17.42;;;;;;;9.65;94.29;102659.75;5034339;28;20156;-72
2021/03/30 05:58:57;;;;;;;28.85;17.17;;;;;;;9.72;93.46;102653.75;5034203;28;20040;-74
2021/03/30 06:01:44;;;;;;;29.58;16.52;;;;;;;10.04;90.61;102663.88;5034059;28;20462;-74
2021/03/30 06:04:30;;;;;;;29.25;18.00;;;;;;;10.08;89.46;102659.59;5033969;28;20355;-72
2021/03/30 06:07:19;;;;;;;37.35;20.55;;;;;;;9.50;92.13;102662.09;5021039;28;20112;-73
2021/03/30 06:10:10;;;;;;;34.38;19.48;;;;;;;9.53;94.91;102664.75;5033927;28;20119;-73
2021/03/30 06:13:00;;;;;;;36.03;20.85;;;;;;;9.94;92.08;102668.97;5020018;28;20025;-72
2021/03/30 06:15:46;;;;;;;40.67;24.17;;;;;;;9.72;93.26;102664.22;5033931;28;20120;-73
2021/03/30 06:18:31;;;;;;;37.42;23.77;;;;;;;10.04;90.05;102676.09;5033950;28;20032;-72
2021/03/30 06:21:17;;;;;;;29.15;19.75;;;;;;;10.01;90.26;102679.53;5033842;28;20022;-73
2021/03/30 06:24:24;;;;;;;39.92;23.55;;;;;;;9.84;90.31;102675.78;5033067;28;20061;-72
2021/03/30 06:27:12;;;;;;;31.63;19.58;;;;;;;10.17;87.15;102678.09;5017630;28;20041;-73
2021/03/30 06:30:00;;;;;;;31.52;19.77;;;;;;;10.42;85.22;102676.69;5033894;28;20025;-73
2021/03/30 06:32:46;;;;;;;34.63;19.75;;;;;;;10.82;82.77;102686.88;5033894;28;20040;-75
2021/03/30 06:35:32;;;;;;;33.90;20.45;;;;;;;10.12;87.96;102684.97;5033593;28;20084;-75
2021/03/30 06:38:18;;;;;;;28.23;18.88;;;;;;;10.03;89.24;102687.44;5033965;28;20048;-74
2021/03/30 06:44:37;;;;;;;30.08;19.10;;;;;;;10.20;92.35;102691.22;5034563;28;20041;-72
2021/03/30 06:47:23;;;;;;;33.58;18.55;;;;;;;10.66;89.47;102687.53;5033565;28;20508;-74
2021/03/30 06:50:37;;;;;;;27.30;17.90;;;;;;;11.05;85.37;102688.03;5019897;28;20103;-75
2021/03/30 06:53:32;;;;;;;28.73;17.10;;;;;;;11.41;80.50;102680.59;5034026;28;20018;-71
2021/03/30 06:56:17;;;;;;;30.05;17.17;;;;;;;10.92;82.60;102691.34;5033492;28;20468;-74
2021/03/30 06:59:09;;;;;;;29.55;18.10;;;;;;;11.14;84.30;102694.28;5033484;28;20104;-72
2021/03/30 07:02:02;;;;;;;29.92;18.92;;;;;;;11.23;85.00;102686.50;5034337;28;20037;-74
2021/03/30 07:04:56;;;;;;;29.23;18.88;;;;;;;11.28;82.16;102684.81;5034503;28;20029;-75
2021/03/30 07:07:42;;;;;;;24.30;15.88;;;;;;;10.97;81.11;102684.44;5038308;28;20378;-74
2021/03/30 07:10:28;;;;;;;25.77;16.52;;;;;;;10.94;82.42;102690.53;5038289;28;20037;-75
2021/03/30 07:13:16;;;;;;;28.27;17.50;;;;;;;11.52;80.39;102681.53;5024732;28;20113;-74
2021/03/30 07:16:07;;;;;;;27.25;17.23;;;;;;;11.78;78.80;102691.47;5023591;28;20125;-74
2021/03/30 07:18:57;;;;;;;25.95;17.77;;;;;;;11.72;78.47;102688.78;5023398;28;20029;-75
2021/03/30 07:21:49;;;;;;;28.95;17.77;;;;;;;12.19;76.48;102687.44;5024008;28;20116;-73
2021/03/30 07:24:49;;;;;;;29.00;16.75;;;;;;;12.02;78.47;102683.78;5023533;28;20030;-75
2021/03/30 07:27:45;;;;;;;31.42;16.60;;;;;;;12.28;75.54;102686.63;5038443;28;20025;-75
2021/03/30 07:30:31;;;;;;;25.13;16.00;;;;;;;12.20;74.48;102686.56;5037062;28;20095;-73
2021/03/30 07:33:32;;;;;;;28.70;16.27;;;;;;;12.25;74.91;102686.59;5023504;28;20041;-75
2021/03/30 07:36:19;;;;;;;22.92;15.32;;;;;;;12.54;73.61;102687.66;5036918;28;20112;-74
2021/03/30 07:39:06;;;;;;;20.23;14.15;;;;;;;12.26;73.54;102680.47;5023627;28;20033;-74
2021/03/30 07:41:52;;;;;;;24.90;14.80;;;;;;;12.40;73.48;102684.06;5036680;28;20448;-74
2021/03/30 07:44:40;;;;;;;20.17;13.45;;;;;;;12.76;72.11;102694.78;5037133;28;20034;-73
2021/03/30 07:47:27;;;;;;;20.90;13.38;;;;;;;13.11;71.43;102680.94;5022204;28;20095;-74
2021/03/30 07:50:16;;;;;;;20.73;12.55;;;;;;;12.84;72.45;102678.19;5036665;28;20036;-74
2021/03/30 07:53:01;;;;;;;21.77;12.75;;;;;;;13.04;70.45;102679.19;5023971;28;20053;-75
2021/03/30 07:55:57;;;;;;;;;;;;;;;;;;;;;
2021/03/30 07:58:48;;;;;;;30.98;10.43;;;;;;;13.24;69.36;102687.13;5037760;28;20100;-74
2021/03/30 08:01:37;;;;;;;17.23;10.00;;;;;;;13.43;69.63;102668.72;5025889;28;20362;-75
2021/03/30 08:04:29;;;;;;;14.65;9.68;;;;;;;13.80;68.83;102683.72;5022561;28;20119;-73
2021/03/30 08:07:44;;;;;;;12.77;9.02;;;;;;;14.02;68.18;102667.03;5022763;28;20025;-74
2021/03/30 08:10:35;;;;;;;12.50;8.45;;;;;;;14.26;67.40;102680.22;5036750;28;20021;-74
2021/03/30 08:13:24;;;;;;;14.32;8.85;;;;;;;14.29;67.54;102672.31;5036508;28;20037;-74
2021/03/30 08:16:10;;;;;;;12.98;9.15;;;;;;;14.51;66.69;102675.78;5035889;28;20029;-74
2021/03/30 08:18:58;;;;;;;15.90;9.25;;;;;;;14.41;67.29;102681.94;5035056;28;20026;-74
2021/03/30 08:22:04;;;;;;;14.45;9.32;;;;;;;14.78;67.13;102675.69;5036345;28;20044;-73
2021/03/30 08:24:49;;;;;;;14.68;10.10;;;;;;;14.70;65.15;102678.34;5021372;28;20045;-73
2021/03/30 08:27:38;;;;;;;15.52;10.77;;;;;;;13.87;66.79;102668.81;5035828;28;20454;-74
2021/03/30 08:30:26;;;;;;;16.10;10.63;;;;;;;13.42;69.08;102677.53;5035640;28;20477;-74
2021/03/30 08:33:13;;;;;;;18.13;10.20;;;;;;;13.71;69.55;102681.06;5035404;28;20099;-74
2021/03/30 08:36:29;;;;;;;21.05;13.50;;;;;;;14.34;67.67;102678.44;5035442;28;20156;-73
2021/03/30 08:39:18;;;;;;;14.25;10.05;;;;;;;14.70;67.63;102673.09;5035787;28;20488;-73
2021/03/30 08:42:04;;;;;;;19.17;11.52;;;;;;;15.44;65.68;102674.50;5035376;28;20161;-75
2021/03/30 08:45:02;;;;;;;15.15;10.63;;;;;;;16.23;62.38;102679.16;5036421;28;20044;-75
2021/03/30 08:47:48;;;;;;;22.63;11.38;;;;;;;15.30;63.17;102676.34;5034604;28;20504;-75
2021/03/30 08:50:35;;;;;;;15.68;10.32;;;;;;;14.22;67.30;102681.09;5021991;28;20039;-74
2021/03/30 08:53:21;;;;;;;15.52;10.45;;;;;;;14.84;66.18;102673.91;5021217;28;20354;-74
2021/03/30 08:56:10;;;;;;;15.38;11.20;;;;;;;14.86;66.14;102665.13;5035956;28;20335;-75
2021/03/30 08:58:57;;;;;;;16.05;10.82;;;;;;;13.97;68.70;102676.69;5021162;28;20036;-74
2021/03/30 09:01:43;;;;;;;18.02;10.82;;;;;;;14.50;68.39;102672.25;5035130;28;20025;-75
2021/03/30 09:04:31;;;;;;;18.00;10.85;;;;;;;14.90;67.97;102665.06;5021225;28;20588;-74
2021/03/30 09:07:17;;;;;;;16.52;10.40;;;;;;;15.28;67.14;102657.84;5036502;28;20033;-75
2021/03/30 09:10:05;;;;;;;21.50;11.20;;;;;;;15.47;66.38;102659.50;5035106;28;20040;-76
2021/03/30 09:12:50;;;;;;;14.68;10.02;;;;;;;15.89;64.98;102667.13;5034976;28;20025;-75
2021/03/30 09:15:36;;;;;;;15.57;10.13;;;;;;;15.75;65.46;102662.84;5035133;28;20117;-75
2021/03/30 09:18:26;;;;;;;19.60;11.27;;;;;;;15.23;67.98;102656.13;5035048;28;20036;-75
2021/03/30 09:21:20;;;;;;;20.73;10.27;;;;;;;15.61;66.35;102649.72;5035740;28;20458;-74
2021/03/30 09:24:12;;;;;;;13.73;9.95;;;;;;;15.97;65.10;102646.78;5034940;28;20052;-76
2021/03/30 09:26:58;;;;;;;14.35;10.52;;;;;;;15.76;65.67;102651.38;5035607;28;20025;-75
2021/03/30 09:29:44;;;;;;;14.77;10.02;;;;;;;15.53;65.89;102646.28;5020970;28;20480;-75
2021/03/30 09:32:31;;;;;;;16.30;10.88;;;;;;;15.24;67.51;102642.03;5034631;28;20048;-74
2021/03/30 09:35:25;;;;;;;13.65;9.40;;;;;;;14.41;70.91;102645.91;5034236;28;20037;-74
2021/03/30 09:38:11;;;;;;;17.40;9.75;;;;;;;15.68;68.20;102635.59;5033987;28;20108;-75
2021/03/30 09:40:57;;;;;;;14.48;9.40;;;;;;;15.68;67.28;102637.34;5034599;28;20064;-76
2021/03/30 09:43:43;;;;;;;15.90;12.25;;;;;;;15.67;67.19;102630.31;5020312;28;20034;-74
2021/03/30 09:46:30;;;;;;;34.05;20.67;;;;;;;15.88;67.16;102638.06;5034341;28;20025;-74
2021/03/30 09:49:19;;;;;;;13.52;9.88;;;;;;;15.42;66.73;102624.31;5021428;28;20072;-75
2021/03/30 09:52:05;;;;;;;13.48;9.95;;;;;;;15.49;68.05;102620.75;5020976;28;20021;-75
2021/03/30 09:54:51;;;;;;;14.57;9.32;;;;;;;15.41;67.73;102616.41;5021038;28;20450;-75
2021/03/30 09:57:37;;;;;;;15.75;9.07;;;;;;;15.15;69.58;102613.03;5034057;28;20520;-75
2021/03/30 10:00:23;;;;;;;13.57;9.27;;;;;;;15.03;69.80;102613.13;5034888;28;20017;-74
2021/03/30 10:03:10;;;;;;;15.65;8.75;;;;;;;15.13;69.37;102606.88;5035044;28;20381;-75
2021/03/30 10:05:58;;;;;;;13.30;9.05;;;;;;;15.17;68.27;102601.56;5034054;28;20029;-75
2021/03/30 10:08:45;;;;;;;21.70;10.73;;;;;;;15.63;67.57;102603.00;5034197;28;20048;-73
2021/03/30 10:11:31;;;;;;;15.90;9.98;;;;;;;16.11;66.19;102604.34;5021118;28;20424;-75
2021/03/30 10:14:25;;;;;;;13.18;8.82;;;;;;;16.12;65.21;102606.94;5020601;28;20100;-74
2021/03/30 10:17:10;;;;;;;32.42;10.05;;;;;;;15.25;66.61;102607.69;5034355;28;20342;-75
2021/03/30 10:19:58;;;;;;;13.20;9.80;;;;;;;15.12;67.43;102602.50;5033887;28;20036;-75
2021/03/30 10:22:48;;;;;;;17.55;9.63;;;;;;;15.65;67.51;102613.56;5035061;28;20026;-75
2021/03/30 10:25:35;;;;;;;13.60;9.32;;;;;;;15.80;64.13;102600.25;5032692;28;20064;-74
2021/03/30 10:28:25;;;;;;;12.32;9.00;;;;;;;15.95;65.89;102589.53;5033922;28;20032;-74
2021/03/30 10:31:43;;;;;;;15.20;8.57;;;;;;;16.51;63.88;102595.97;5034465;28;20397;-74
2021/03/30 10:34:34;;;;;;;12.23;8.40;;;;;;;16.35;64.31;102593.50;5020867;28;20053;-74
2021/03/30 10:37:20;;;;;;;15.88;8.98;;;;;;;16.28;64.91;102589.19;5033515;28;20025;-74
2021/03/30 10:40:06;;;;;;;11.38;8.38;;;;;;;16.49;62.89;102588.94;5032285;28;20038;-73
2021/03/30 10:42:52;;;;;;;14.63;9.20;;;;;;;16.19;64.05;102584.84;5034501;28;20060;-74
2021/03/30 10:45:37;;;;;;;16.02;9.30;;;;;;;16.53;62.42;102582.72;5019555;28;20052;-73
2021/03/30 10:48:24;;;;;;;12.45;8.68;;;;;;;16.96;62.88;102576.84;5033457;28;20022;-74
2021/03/30 10:51:09;;;;;;;14.80;9.20;;;;;;;16.72;63.94;102574.53;5033719;28;20037;-74
2021/03/30 10:53:55;;;;;;;15.02;9.02;;;;;;;16.81;62.82;102569.13;5033847;28;20026;-74
2021/03/30 10:56:42;;;;;;;18.55;9.93;;;;;;;16.98;61.48;102572.41;5032512;28;20025;-75
2021/03/30 10:59:28;;;;;;;13.63;9.32;;;;;;;16.13;64.29;102568.16;5033963;28;20029;-75
2021/03/30 11:02:15;;;;;;;13.43;9.55;;;;;;;16.43;63.83;102565.22;5032448;28;20130;-75
2021/03/30 11:05:01;;;;;;;20.45;10.05;;;;;;;16.17;63.29;102559.31;5033808;28;20127;-75
2021/03/30 11:07:47;;;;;;;13.27;9.30;;;;;;;15.75;65.17;102559.78;5032636;28;20048;-74
2021/03/30 11:10:33;;;;;;;18.88;10.07;;;;;;;16.69;63.71;102549.88;5019441;28;20454;-76
2021/03/30 11:13:19;;;;;;;16.23;9.48;;;;;;;16.82;61.46;102543.50;5033598;28;20492;-76
2021/03/30 11:16:05;;;;;;;16.20;9.85;;;;;;;17.06;61.99;102551.97;5032531;28;20021;-75
2021/03/30 11:18:51;;;;;;;30.05;11.05;;;;;;;16.99;62.17;102549.44;5019509;28;20044;-75
2021/03/30 11:21:37;;;;;;;19.73;11.60;;;;;;;17.74;59.93;102550.88;5031884;28;20347;-75
2021/03/30 11:24:26;;;;;;;15.80;10.80;;;;;;;17.93;58.25;102547.84;5019418;28;20018;-75
2021/03/30 11:27:12;;;;;;;22.15;10.50;;;;;;;17.30;59.00;102543.66;5033619;28;20033;-75
2021/03/30 11:36:10;;;;;;;13.48;10.70;;;;;;;18.10;54.86;102529.88;5032966;28;20025;-75
2021/03/30 11:38:56;;;;;;;15.50;11.02;;;;;;;18.09;54.73;102529.88;5032849;28;20091;-75
2021/03/30 11:41:42;;;;;;;14.75;10.18;;;;;;;18.25;55.86;102526.03;5018191;28;20048;-75
2021/03/30 11:44:27;;;;;;;14.60;10.38;;;;;;;17.70;56.38;102530.63;5032966;28;20029;-75
2021/03/30 11:47:14;;;;;;;14.73;10.73;;;;;;;17.95;55.91;102514.22;5032626;28;20097;-75
2021/03/30 11:50:00;;;;;;;16.17;10.13;;;;;;;18.66;54.36;102518.94;5019270;28;20033;-75
2021/03/30 11:52:46;;;;;;;13.77;9.70;;;;;;;18.73;53.89;102512.59;5037292;28;20037;-76
2021/03/30 11:55:32;;;;;;;15.13;10.48;;;;;;;18.93;52.68;102504.19;5023061;28;20135;-75
2021/03/30 11:58:17;;;;;;;14.15;10.43;;;;;;;18.21;53.91;102503.97;5037231;28;20356;-75
2021/03/30 12:01:06;;;;;;;16.25;11.05;;;;;;;18.22;53.54;102505.75;5036496;28;20036;-75
2021/03/30 12:03:52;;;;;;;16.95;11.13;;;;;;;18.07;54.94;102495.44;5023580;28;20029;-74
2021/03/30 12:06:38;;;;;;;15.98;10.50;;;;;;;18.10;55.60;102499.78;5036304;28;20112;-74
2021/03/30 12:09:24;;;;;;;18.92;10.95;;;;;;;17.87;55.92;102488.75;5037535;28;20107;-74
2021/03/30 12:12:10;;;;;;;15.40;10.73;;;;;;;16.76;57.40;102480.94;5035904;28;20025;-74
2021/03/30 12:14:56;;;;;;;15.25;10.95;;;;;;;16.89;57.21;102484.28;5037401;28;20434;-73
2021/03/30 12:17:42;;;;;;;16.50;11.23;;;;;;;16.97;58.35;102485.03;5036258;28;20045;-75
2021/03/30 12:20:28;;;;;;;18.20;12.05;;;;;;;16.92;58.57;102485.09;5036177;28;20362;-75
2021/03/30 12:23:14;;;;;;;16.92;12.45;;;;;;;16.77;60.16;102473.88;5034544;28;20083;-74
2021/03/30 12:26:00;;;;;;;24.40;12.10;;;;;;;16.62;59.22;102477.63;5035811;28;20053;-74
2021/03/30 12:28:45;;;;;;;16.77;11.40;;;;;;;16.97;58.23;102482.38;5020814;28;20088;-74
2021/03/30 12:31:32;;;;;;;15.00;11.02;;;;;;;17.18;57.87;102474.09;5036041;28;20033;-74
2021/03/30 12:34:18;;;;;;;16.48;11.50;;;;;;;16.95;58.12;102477.13;5023040;28;20084;-74
2021/03/30 12:37:04;;;;;;;17.15;11.35;;;;;;;16.36;59.23;102468.25;5035735;28;20421;-75
2021/03/30 12:39:50;;;;;;;20.35;12.27;;;;;;;16.58;59.17;102467.09;5036408;28;20026;-75
2021/03/30 12:42:35;;;;;;;16.60;12.20;;;;;;;16.52;59.05;102464.56;5035693;28;20111;-75
2021/03/30 12:45:21;;;;;;;21.00;12.70;;;;;;;16.46;59.85;102461.97;5036057;28;20091;-75
2021/03/30 12:48:10;;;;;;;18.08;13.25;;;;;;;16.43;60.43;102460.25;5035464;28;20079;-75
2021/03/30 12:50:56;;;;;;;19.92;12.80;;;;;;;16.35;62.28;102458.59;5036420;28;20048;-72
2021/03/30 12:53:42;;;;;;;17.95;12.68;;;;;;;16.55;60.09;102449.50;5020569;28;20028;-74
2021/03/30 12:56:28;;;;;;;26.10;12.77;;;;;;;16.41;60.19;102443.53;5034789;28;20049;-73
2021/03/30 12:59:14;;;;;;;18.35;12.70;;;;;;;16.25;59.98;102443.72;5035171;28;20450;-74
2021/03/30 13:02:00;;;;;;;22.40;12.85;;;;;;;16.45;59.04;102447.00;5034589;28;20035;-74
2021/03/30 13:04:46;;;;;;;22.30;12.85;;;;;;;16.81;59.06;102443.81;5035145;28;20036;-74
2021/03/30 13:07:32;;;;;;;18.30;12.38;;;;;;;16.59;58.14;102434.47;5021272;28;20040;-74
2021/03/30 13:10:18;;;;;;;21.95;12.10;;;;;;;17.32;56.97;102429.69;5035519;28;20113;-74
2021/03/30 13:13:04;;;;;;;15.93;11.75;;;;;;;17.98;55.78;102423.13;5035189;28;20040;-75